createdAt,value
2019-02-11T00:08:08.314Z,5.90
2019-02-11T00:18:10.298Z,5.90
2019-02-11T00:28:12.447Z,5.90
2019-02-11T00:38:14.664Z,5.90
2019-02-11T00:48:16.618Z,6.00
2019-02-11T00:58:18.629Z,5.90
2019-02-11T01:08:20.934Z,5.80
2019-02-11T01:18:22.919Z,5.80
2019-02-11T01:28:24.866Z,5.90
2019-02-11T01:38:27.100Z,6.00
2019-02-11T01:48:29.071Z,6.00
2019-02-11T01:58:31.634Z,6.00
2019-02-11T02:08:34.570Z,6.00
2019-02-11T02:18:36.954Z,6.10
2019-02-11T02:28:38.895Z,6.00
2019-02-11T02:38:41.213Z,6.00
2019-02-11T02:48:45.315Z,6.00
2019-02-11T02:58:47.462Z,6.00
2019-02-11T03:08:49.553Z,6.10
2019-02-11T03:18:51.655Z,6.10
2019-02-11T03:28:53.927Z,6.20
2019-02-11T03:38:55.887Z,6.20
2019-02-11T03:48:57.981Z,6.20
2019-02-11T03:59:00.214Z,6.30
2019-02-11T04:09:03.994Z,6.30
2019-02-11T04:19:06.021Z,6.40
2019-02-11T04:29:08.496Z,6.40
2019-02-11T04:39:10.955Z,6.40
2019-02-11T04:49:12.934Z,6.30
2019-02-11T04:59:15.118Z,6.30
2019-02-11T05:09:17.602Z,6.20
2019-02-11T05:19:19.591Z,6.20
2019-02-11T05:29:21.555Z,6.20
2019-02-11T05:39:24.594Z,6.10
2019-02-11T05:49:26.639Z,6.00
2019-02-11T05:59:28.683Z,5.90
2019-02-11T06:09:30.787Z,5.90
2019-02-11T06:19:52.211Z,6.10
2019-02-11T06:29:54.407Z,6.00
2019-02-11T06:39:56.379Z,6.10
2019-02-11T06:49:59.671Z,6.00
2019-02-11T07:00:01.726Z,6.00
2019-02-11T07:10:06.242Z,6.10
2019-02-11T07:20:08.932Z,6.10
2019-02-11T07:30:12.907Z,6.20
2019-02-11T07:40:15.338Z,6.30
2019-02-11T07:50:17.446Z,6.40
2019-02-11T08:00:19.443Z,6.40
2019-02-11T08:10:22.332Z,6.50
2019-02-11T08:20:24.340Z,6.70
2019-02-11T08:30:26.325Z,6.90
2019-02-11T08:40:28.286Z,6.90
2019-02-11T08:50:30.287Z,7.00
2019-02-11T09:00:32.895Z,7.00
2019-02-11T09:10:35.043Z,7.20
2019-02-11T09:20:37.325Z,7.40
2019-02-11T09:30:39.905Z,7.40
2019-02-11T09:40:42.460Z,7.30
2019-02-11T09:50:47.231Z,7.80
2019-02-11T10:00:49.308Z,7.90
2019-02-11T10:10:51.487Z,8.10
2019-02-11T10:20:53.430Z,8.10
2019-02-11T10:30:55.453Z,8.90
2019-02-11T10:40:57.402Z,8.90
2019-02-11T10:51:01.314Z,9.10
2019-02-11T11:01:04.087Z,9.00
2019-02-11T11:11:07.440Z,9.20
2019-02-11T11:21:11.803Z,9.20
2019-02-11T11:31:13.748Z,9.10
2019-02-11T11:41:16.846Z,9.40
2019-02-11T11:51:18.830Z,9.50
2019-02-11T12:01:20.954Z,8.90
2019-02-11T12:11:22.937Z,8.50
2019-02-11T12:21:25.971Z,8.30
2019-02-11T12:31:28.978Z,8.30
2019-02-11T12:41:30.892Z,7.90
2019-02-11T12:51:32.889Z,7.90
2019-02-11T13:01:34.918Z,7.50
2019-02-11T13:11:36.904Z,7.60
2019-02-11T13:21:38.854Z,8.30
2019-02-11T13:31:40.818Z,9.40
2019-02-11T13:41:43.042Z,9.00
2019-02-11T13:51:45.350Z,8.30
2019-02-11T14:01:47.328Z,8.10
2019-02-11T14:11:49.555Z,8.00
2019-02-11T14:21:51.541Z,8.50
2019-02-11T14:31:53.461Z,8.30
2019-02-11T14:41:56.195Z,7.80
2019-02-11T14:51:58.163Z,7.80
2019-02-11T15:02:00.477Z,8.20
2019-02-11T15:12:04.519Z,7.90
2019-02-11T15:22:06.525Z,7.70
2019-02-11T15:32:08.617Z,7.70
2019-02-11T15:42:10.567Z,7.60
2019-02-11T15:52:12.911Z,7.50
2019-02-11T16:02:16.382Z,7.60
2019-02-11T16:12:17.887Z,7.50
2019-02-11T16:22:19.931Z,7.60
2019-02-11T16:32:23.674Z,7.60
2019-02-11T16:42:26.824Z,7.50
2019-02-11T16:52:28.761Z,7.40
2019-02-11T17:02:32.038Z,7.20
2019-02-11T17:12:34.313Z,7.10
2019-02-11T17:22:36.238Z,7.10
2019-02-11T17:32:38.319Z,7.10
2019-02-11T17:42:40.577Z,7.10
2019-02-11T17:52:42.861Z,7.20
2019-02-11T18:02:45.041Z,7.10
2019-02-11T18:12:47.274Z,6.90
2019-02-11T18:22:49.224Z,6.70
2019-02-11T18:32:51.222Z,6.50
2019-02-11T18:42:53.248Z,6.50
2019-02-11T18:52:55.187Z,6.40
2019-02-11T19:02:57.599Z,6.40
2019-02-11T19:12:59.762Z,6.20
2019-02-11T19:23:01.888Z,6.20
2019-02-11T19:33:04.114Z,6.20
2019-02-11T19:43:06.080Z,6.00
2019-02-11T19:53:08.177Z,5.90
2019-02-11T20:03:10.711Z,6.00
2019-02-11T20:13:14.470Z,5.90
2019-02-11T20:23:16.743Z,5.80
2019-02-11T20:33:20.580Z,5.80
2019-02-11T20:43:22.518Z,5.70
2019-02-11T20:53:25.160Z,5.70
2019-02-11T21:03:31.906Z,5.70
2019-02-11T21:13:34.246Z,5.60
2019-02-11T21:23:37.720Z,5.60
2019-02-11T21:33:39.337Z,5.50
2019-02-11T21:43:41.610Z,5.50
2019-02-11T21:53:43.538Z,5.40
2019-02-11T22:03:46.710Z,5.40
2019-02-11T22:13:52.531Z,5.60
2019-02-11T22:23:54.438Z,5.60
2019-02-11T22:33:56.374Z,5.60
2019-02-11T22:43:58.312Z,5.70
2019-02-11T22:54:00.239Z,5.60
2019-02-11T23:04:02.579Z,5.50
2019-02-11T23:14:04.755Z,5.50
2019-02-11T23:24:07.578Z,5.40
2019-02-11T23:34:10.442Z,5.40
2019-02-11T23:44:14.252Z,5.40
2019-02-11T23:54:17.999Z,5.30
